Time,TemperatureF,DewpointF,PressureIn,WindDirection,WindDirectionDegrees,WindSpeedMPH,WindSpeedGustMPH,Humidity,HourlyPrecipIn,Conditions,Clouds,dailyrainin,SoftwareType,DateUTC
2013-10-03 00:23:00,69.0,67.0,29.83,South,182,0.0,-999.0,92,-99.99,,,-99.99,,2013-10-03 05:23:00,
2013-10-03 00:43:00,69.0,66.0,29.83,South,182,0.0,-999.0,91,-99.99,,,-99.99,,2013-10-03 05:43:00,
2013-10-03 00:52:00,70.0,68.0,29.83,South,182,0.0,-999.0,92,-99.99,,,-99.99,,2013-10-03 05:52:00,
2013-10-03 01:12:00,70.0,67.0,29.82,South,184,0.0,-999.0,91,-99.99,,,-99.99,,2013-10-03 06:12:00,
2013-10-03 01:22:00,70.0,67.0,29.81,South,184,0.0,-999.0,91,-99.99,,,-99.99,,2013-10-03 06:22:00,
2013-10-03 01:42:00,70.0,67.0,29.80,South,182,0.0,-999.0,91,-99.99,,,-99.99,,2013-10-03 06:42:00,
2013-10-03 01:52:00,70.0,67.0,29.80,South,182,0.0,-999.0,91,-99.99,,,-99.99,,2013-10-03 06:52:00,
2013-10-03 02:11:00,70.0,67.0,29.81,South,182,0.0,-999.0,91,-99.99,,,-99.99,,2013-10-03 07:11:00,
2013-10-03 02:22:00,70.0,67.0,29.81,South,182,0.0,-999.0,91,-99.99,,,-99.99,,2013-10-03 07:22:00,
2013-10-03 02:52:00,70.0,67.0,29.80,South,182,0.0,-999.0,91,-99.99,,,-99.99,,2013-10-03 07:52:00,
2013-10-03 03:12:00,70.0,67.0,29.80,South,182,0.0,-999.0,90,-99.99,,,-99.99,,2013-10-03 08:12:00,
2013-10-03 03:22:00,70.0,67.0,29.80,South,182,0.0,-999.0,90,-99.99,,,-99.99,,2013-10-03 08:22:00,
2013-10-03 03:42:00,70.0,67.0,29.80,South,182,0.0,-999.0,90,-99.99,,,-99.99,,2013-10-03 08:42:00,
2013-10-03 03:52:00,70.0,67.0,29.79,South,184,0.0,-999.0,90,-99.99,,,-99.99,,2013-10-03 08:52:00,
2013-10-03 04:12:00,70.0,67.0,29.79,South,186,0.0,-999.0,90,-99.99,,,-99.99,,2013-10-03 09:12:00,
2013-10-03 04:22:00,71.0,68.0,29.79,SSW,192,0.0,-999.0,89,-99.99,,,-99.99,,2013-10-03 09:22:00,
2013-10-03 04:53:00,71.0,68.0,29.78,SSW,193,0.0,-999.0,89,-99.99,,,-99.99,,2013-10-03 09:53:00,
2013-10-03 05:23:00,71.0,67.0,29.78,SSW,200,0.0,-999.0,88,-99.99,,,-99.99,,2013-10-03 10:23:00,
2013-10-03 05:52:00,70.0,67.0,29.78,SSW,200,0.0,-999.0,89,-99.99,,,-99.99,,2013-10-03 10:52:00,
2013-10-03 06:12:00,70.0,67.0,29.78,SSW,201,0.0,-999.0,89,-99.99,,,-99.99,,2013-10-03 11:12:00,
2013-10-03 06:23:00,70.0,67.0,29.79,SSW,196,0.0,-999.0,89,-99.99,,,-99.99,,2013-10-03 11:23:00,
2013-10-03 06:52:00,70.0,67.0,29.80,WNW,302,0.0,-999.0,90,-99.99,,,-99.99,,2013-10-03 11:52:00,
2013-10-03 07:22:00,67.0,64.0,29.81,NW,324,0.0,-999.0,91,-99.99,,,-99.99,,2013-10-03 12:22:00,
2013-10-03 07:42:00,65.0,62.0,29.82,NW,324,0.0,-999.0,91,-99.99,,,-99.99,,2013-10-03 12:42:00,
2013-10-03 07:52:00,65.0,63.0,29.83,NW,322,0.0,-999.0,92,-99.99,,,-99.99,,2013-10-03 12:52:00,
2013-10-03 08:11:00,64.0,62.0,29.83,NW,319,0.0,-999.0,93,-99.99,,,-99.99,,2013-10-03 13:11:00,
2013-10-03 08:22:00,64.0,62.0,29.84,NW,319,0.0,-999.0,93,-99.99,,,-99.99,,2013-10-03 13:22:00,
2013-10-03 08:52:00,63.0,61.0,29.86,NW,319,0.0,-999.0,94,-99.99,,,-99.99,,2013-10-03 13:52:00,
2013-10-03 09:11:00,63.0,61.0,29.87,NW,318,0.0,-999.0,94,-99.99,,,-99.99,,2013-10-03 14:11:00,
2013-10-03 09:22:00,63.0,61.0,29.88,NW,319,0.0,-999.0,94,-99.99,,,-99.99,,2013-10-03 14:22:00,
2013-10-03 09:52:00,63.0,61.0,29.85,NW,319,0.0,-999.0,94,-99.99,,,-99.99,,2013-10-03 14:52:00,
2013-10-03 10:11:00,63.0,61.0,29.85,NW,319,0.0,-999.0,94,-99.99,,,-99.99,,2013-10-03 15:11:00,
2013-10-03 10:22:00,63.0,62.0,29.88,NW,319,0.0,-999.0,95,-99.99,,,-99.99,,2013-10-03 15:22:00,
2013-10-03 10:43:00,63.0,62.0,29.85,NW,318,0.0,-999.0,95,-99.99,,,-99.99,,2013-10-03 15:43:00,
2013-10-03 10:53:00,63.0,62.0,29.84,NW,317,0.0,-999.0,95,-99.99,,,-99.99,,2013-10-03 15:53:00,
2013-10-03 11:12:00,63.0,62.0,29.79,SSE,160,5.0,-999.0,95,-99.99,,,-99.99,,2013-10-03 16:12:00,
2013-10-03 11:23:00,63.0,62.0,29.81,SSE,156,0.0,-999.0,95,-99.99,,,-99.99,,2013-10-03 16:23:00,
2013-10-03 11:42:00,64.0,63.0,29.78,SSE,158,0.0,-999.0,95,-99.99,,,-99.99,,2013-10-03 16:42:00,
2013-10-03 11:53:00,65.0,64.0,29.78,South,170,0.0,-999.0,95,-99.99,,,-99.99,,2013-10-03 16:53:00,
2013-10-03 12:12:00,66.0,65.0,29.78,South,170,0.0,-999.0,95,-99.99,,,-99.99,,2013-10-03 17:12:00,
2013-10-03 12:22:00,68.0,67.0,29.79,South,181,2.0,-999.0,95,-99.99,,,-99.99,,2013-10-03 17:22:00,
2013-10-03 12:42:00,70.0,67.0,29.78,South,179,4.0,-999.0,91,-99.99,,,-99.99,,2013-10-03 17:42:00,
2013-10-03 12:52:00,72.0,68.0,29.78,SSE,166,5.0,-999.0,87,-99.99,,,-99.99,,2013-10-03 17:52:00,
2013-10-03 13:12:00,72.0,67.0,29.78,South,175,5.0,-999.0,83,-99.99,,,-99.99,,2013-10-03 18:12:00,
2013-10-03 13:22:00,72.0,67.0,29.76,SSE,159,4.0,-999.0,84,-99.99,,,-99.99,,2013-10-03 18:22:00,
2013-10-03 13:42:00,74.0,68.0,29.75,South,180,2.0,-999.0,81,-99.99,,,-99.99,,2013-10-03 18:42:00,
2013-10-03 13:52:00,75.0,68.0,29.75,South,190,1.0,-999.0,80,-99.99,,,-99.99,,2013-10-03 18:52:00,
2013-10-03 14:11:00,76.0,68.0,29.74,South,180,6.0,-999.0,77,-99.99,,,-99.99,,2013-10-03 19:11:00,
2013-10-03 14:22:00,78.0,70.0,29.72,South,186,8.0,-999.0,76,-99.99,,,-99.99,,2013-10-03 19:22:00,
2013-10-03 14:42:00,79.0,71.0,29.72,South,173,5.0,-999.0,76,-99.99,,,-99.99,,2013-10-03 19:42:00,
2013-10-03 14:52:00,78.0,71.0,29.71,South,180,6.0,-999.0,78,-99.99,,,-99.99,,2013-10-03 19:52:00,
2013-10-03 15:12:00,79.0,71.0,29.70,South,174,6.0,-999.0,77,-99.99,,,-99.99,,2013-10-03 20:12:00,
2013-10-03 15:21:00,79.0,71.0,29.70,South,176,10.0,-999.0,77,-99.99,,,-99.99,,2013-10-03 20:21:00,
2013-10-03 15:42:00,79.0,71.0,29.70,SSW,197,9.0,-999.0,77,-99.99,,,-99.99,,2013-10-03 20:42:00,
2013-10-03 15:52:00,80.0,72.0,29.70,South,187,7.0,-999.0,76,-99.99,,,-99.99,,2013-10-03 20:52:00,
2013-10-03 16:12:00,80.0,71.0,29.69,South,177,5.0,-999.0,75,-99.99,,,-99.99,,2013-10-03 21:12:00,
2013-10-03 16:21:00,79.0,71.0,29.69,South,172,8.0,-999.0,76,-99.99,,,-99.99,,2013-10-03 21:21:00,
2013-10-03 16:43:00,80.0,72.0,29.68,South,171,8.0,-999.0,77,-99.99,,,-99.99,,2013-10-03 21:43:00,
2013-10-03 16:54:00,82.0,73.0,29.67,South,183,4.0,-999.0,75,-99.99,,,-99.99,,2013-10-03 21:54:00,
2013-10-03 17:13:00,82.0,73.0,29.67,South,177,3.0,-999.0,74,-99.99,,,-99.99,,2013-10-03 22:13:00,
2013-10-03 17:23:00,82.0,72.0,29.67,South,182,3.0,-999.0,72,-99.99,,,-99.99,,2013-10-03 22:23:00,
2013-10-03 17:43:00,82.0,71.0,29.67,South,169,5.0,-999.0,70,-99.99,,,-99.99,,2013-10-03 22:43:00,
2013-10-03 17:54:00,83.0,71.0,29.67,South,184,5.0,-999.0,68,-99.99,,,-99.99,,2013-10-03 22:54:00,
2013-10-03 18:12:00,82.0,71.0,29.67,South,182,3.0,-999.0,69,-99.99,,,-99.99,,2013-10-03 23:12:00,
2013-10-03 18:22:00,82.0,70.0,29.67,SSW,199,6.0,-999.0,67,-99.99,,,-99.99,,2013-10-03 23:22:00,
2013-10-03 18:43:00,82.0,70.0,29.67,South,179,3.0,-999.0,68,-99.99,,,-99.99,,2013-10-03 23:43:00,
2013-10-03 18:52:00,81.0,70.0,29.67,SSW,195,1.0,-999.0,70,-99.99,,,-99.99,,2013-10-03 23:52:00,
2013-10-03 19:12:00,81.0,70.0,29.67,South,174,1.0,-999.0,70,-99.99,,,-99.99,,2013-10-04 00:12:00,
2013-10-03 19:22:00,80.0,70.0,29.68,South,188,1.0,-999.0,72,-99.99,,,-99.99,,2013-10-04 00:22:00,
2013-10-03 19:42:00,79.0,70.0,29.68,SSW,193,1.0,-999.0,73,-99.99,,,-99.99,,2013-10-04 00:42:00,
2013-10-03 19:52:00,78.0,69.0,29.68,South,180,0.0,-999.0,74,-99.99,,,-99.99,,2013-10-04 00:52:00,
2013-10-03 20:12:00,78.0,69.0,29.69,South,178,0.0,-999.0,75,-99.99,,,-99.99,,2013-10-04 01:12:00,
2013-10-03 20:22:00,77.0,69.0,29.70,South,178,0.0,-999.0,77,-99.99,,,-99.99,,2013-10-04 01:22:00,
2013-10-03 20:42:00,76.0,70.0,29.70,South,178,0.0,-999.0,81,-99.99,,,-99.99,,2013-10-04 01:42:00,
2013-10-03 20:52:00,75.0,69.0,29.71,South,175,0.0,-999.0,83,-99.99,,,-99.99,,2013-10-04 01:52:00,
2013-10-03 21:12:00,75.0,70.0,29.72,South,175,0.0,-999.0,84,-99.99,,,-99.99,,2013-10-04 02:12:00,
2013-10-03 21:22:00,75.0,69.0,29.72,South,175,0.0,-999.0,83,-99.99,,,-99.99,,2013-10-04 02:22:00,
2013-10-03 21:43:00,75.0,70.0,29.72,South,175,0.0,-999.0,84,-99.99,,,-99.99,,2013-10-04 02:43:00,
2013-10-03 21:52:00,75.0,70.0,29.73,South,175,0.0,-999.0,84,-99.99,,,-99.99,,2013-10-04 02:52:00,
2013-10-03 22:22:00,74.0,69.0,29.73,South,175,0.0,-999.0,85,-99.99,,,-99.99,,2013-10-04 03:22:00,
2013-10-03 22:44:00,74.0,69.0,29.73,South,175,0.0,-999.0,85,-99.99,,,-99.99,,2013-10-04 03:44:00,
2013-10-03 22:57:00,75.0,70.0,29.73,South,175,0.0,-999.0,85,-99.99,,,-99.99,,2013-10-04 03:57:00,
2013-10-03 23:58:00,76.0,69.0,29.72,South,184,0.0,-999.0,78,-99.99,,,-99.99,,2013-10-04 04:58:00,